This is the latest recevied weather packets stored in our database for station/object OK3MS-5. If no packets are shown the sender has not sent any weather packets the latest 10 day(s).
| Time | Temp. | Humidity | Pressure | Rain* | Wind** | Luminosity | Snow |
|---|---|---|---|---|---|---|---|
| 1777648503 | 19.44° C | 36% | 1023.9 hPa | 0 mm | - | 329 W/m² | - |
| 1777648204 | 19.44° C | 35% | 1023.8 hPa | 0 mm | - | 341 W/m² | - |
| 1777647906 | 19.44° C | 35% | 1023.9 hPa | 0 mm | - | 354 W/m² | - |
| 1777647605 | 19.44° C | 34% | 1023.9 hPa | 0 mm | - | 369 W/m² | - |
| 1777647304 | 18.89° C | 34% | 1024.1 hPa | 0 mm | - | 385 W/m² | - |
| 1777647003 | 18.33° C | 36% | 1024.2 hPa | 0 mm | - | 408 W/m² | - |
| 1777646704 | 18.33° C | 36% | 1024.2 hPa | 0 mm | - | 424 W/m² | - |
| 1777646404 | 18.89° C | 37% | 1024.3 hPa | 0 mm | - | 429 W/m² | - |
| 1777646105 | 19.44° C | 36% | 1024.1 hPa | 0 mm | - | 448 W/m² | - |
| 1777645804 | 18.89° C | 37% | 1024.3 hPa | 0 mm | - | 452 W/m² | - |
| 1777645505 | 18.33° C | 35% | 1024.5 hPa | 0 mm | - | 463 W/m² | - |
| 1777645205 | 18.33° C | 37% | 1024.5 hPa | 0 mm | - | 478 W/m² | - |
| 1777644903 | 17.78° C | 37% | 1024.5 hPa | 0 mm | - | 487 W/m² | - |
| 1777644604 | 18.89° C | 36% | 1024.2 hPa | 0 mm | - | 505 W/m² | - |
| 1777644304 | 18.89° C | 37% | 1024.4 hPa | 0 mm | - | 511 W/m² | - |
| 1777644004 | 18.33° C | 38% | 1024.4 hPa | 0 mm | - | 527 W/m² | - |
| 1777643703 | 18.33° C | 38% | 1024.6 hPa | 0 mm | - | 542 W/m² | - |
| 1777643406 | 18.33° C | 37% | 1024.7 hPa | 0 mm | - | 554 W/m² | - |
| 1777643105 | 18.33° C | 38% | 1024.8 hPa | 0 mm | - | 99 W/m² | - |
| 1777642808 | 17.78° C | 38% | 1024.9 hPa | 0 mm | - | 581 W/m² | - |
| 1777642508 | 18.33° C | 39% | 1024.8 hPa | 0 mm | - | 589 W/m² | - |
| 1777642204 | 18.33° C | 39% | 1024.8 hPa | 0 mm | - | 155 W/m² | - |
| 1777641903 | 18.33° C | 39% | 1024.8 hPa | 0 mm | - | 619 W/m² | - |
| 1777641604 | 17.78° C | 39% | 1025 hPa | 0 mm | - | 619 W/m² | - |
| 1777641306 | 18.33° C | 40% | 1025 hPa | 0 mm | - | 624 W/m² | - |
* Rain latest hour (hover to see other rain measurements)
** Current wind speed in m/s (hover to see current wind gust speed)